sensor_id;sensor_type;location;lat;lon;timestamp;temperature;humidity
52709;DHT22;38606;52.986;6.980;2023-07-16T00:01:11;18.20;99.90
52709;DHT22;38606;52.986;6.980;2023-07-16T00:03:36;18.30;99.90
52709;DHT22;38606;52.986;6.980;2023-07-16T00:06:02;18.40;99.90
52709;DHT22;38606;52.986;6.980;2023-07-16T00:08:28;18.50;99.90
52709;DHT22;38606;52.986;6.980;2023-07-16T00:10:53;18.20;99.90
52709;DHT22;38606;52.986;6.980;2023-07-16T00:13:19;18.50;99.90
52709;DHT22;38606;52.986;6.980;2023-07-16T00:15:45;18.30;99.90
52709;DHT22;38606;52.986;6.980;2023-07-16T00:18:10;18.30;99.90
52709;DHT22;38606;52.986;6.980;2023-07-16T00:20:36;18.00;99.90
52709;DHT22;38606;52.986;6.980;2023-07-16T00:23:02;18.10;99.90
52709;DHT22;38606;52.986;6.980;2023-07-16T00:25:28;18.40;99.90
52709;DHT22;38606;52.986;6.980;2023-07-16T00:27:53;18.20;99.90
52709;DHT22;38606;52.986;6.980;2023-07-16T00:30:19;18.00;99.90
52709;DHT22;38606;52.986;6.980;2023-07-16T00:32:45;17.80;99.90
52709;DHT22;38606;52.986;6.980;2023-07-16T00:35:10;18.00;99.90
52709;DHT22;38606;52.986;6.980;2023-07-16T00:37:36;18.00;99.90
52709;DHT22;38606;52.986;6.980;2023-07-16T00:40:02;17.90;99.90
52709;DHT22;38606;52.986;6.980;2023-07-16T00:42:29;17.80;99.90
52709;DHT22;38606;52.986;6.980;2023-07-16T00:44:54;17.80;99.90
52709;DHT22;38606;52.986;6.980;2023-07-16T00:47:21;18.00;99.90
52709;DHT22;38606;52.986;6.980;2023-07-16T00:49:48;17.80;99.90
52709;DHT22;38606;52.986;6.980;2023-07-16T00:52:18;17.90;99.90
52709;DHT22;38606;52.986;6.980;2023-07-16T00:54:44;17.80;99.90
52709;DHT22;38606;52.986;6.980;2023-07-16T00:57:10;18.00;99.90
52709;DHT22;38606;52.986;6.980;2023-07-16T00:59:35;17.60;99.90
52709;DHT22;38606;52.986;6.980;2023-07-16T01:02:01;17.90;99.90
52709;DHT22;38606;52.986;6.980;2023-07-16T01:04:27;17.90;99.90
52709;DHT22;38606;52.986;6.980;2023-07-16T01:06:55;17.70;99.90
52709;DHT22;38606;52.986;6.980;2023-07-16T01:09:24;17.90;99.90
52709;DHT22;38606;52.986;6.980;2023-07-16T01:11:51;17.90;99.90
52709;DHT22;38606;52.986;6.980;2023-07-16T01:14:19;17.70;99.90
52709;DHT22;38606;52.986;6.980;2023-07-16T01:16:45;15.90;99.90
52709;DHT22;38606;52.986;6.980;2023-07-16T01:19:11;17.80;99.90
52709;DHT22;38606;52.986;6.980;2023-07-16T01:21:48;17.70;99.90
52709;DHT22;38606;52.986;6.980;2023-07-16T01:30:08;17.60;99.90
52709;DHT22;38606;52.986;6.980;2023-07-16T01:32:37;17.90;99.90
52709;DHT22;38606;52.986;6.980;2023-07-16T01:35:05;17.70;99.90
52709;DHT22;38606;52.986;6.980;2023-07-16T01:37:32;17.40;99.90
52709;DHT22;38606;52.986;6.980;2023-07-16T01:39:58;17.50;99.90
52709;DHT22;38606;52.986;6.980;2023-07-16T01:42:23;17.40;99.90
52709;DHT22;38606;52.986;6.980;2023-07-16T01:44:49;17.50;99.90
52709;DHT22;38606;52.986;6.980;2023-07-16T01:49:54;17.40;99.90
52709;DHT22;38606;52.986;6.980;2023-07-16T01:52:20;17.30;99.90
52709;DHT22;38606;52.986;6.980;2023-07-16T01:54:45;17.50;99.90
52709;DHT22;38606;52.986;6.980;2023-07-16T01:57:11;17.50;99.90
52709;DHT22;38606;52.986;6.980;2023-07-16T01:59:37;17.30;99.90
52709;DHT22;38606;52.986;6.980;2023-07-16T02:02:03;17.30;99.90
52709;DHT22;38606;52.986;6.980;2023-07-16T02:04:29;17.30;99.90
52709;DHT22;38606;52.986;6.980;2023-07-16T02:06:54;17.50;99.90
52709;DHT22;38606;52.986;6.980;2023-07-16T02:09:21;17.20;99.90
52709;DHT22;38606;52.986;6.980;2023-07-16T02:11:46;17.40;99.90
52709;DHT22;38606;52.986;6.980;2023-07-16T02:14:12;17.20;99.90
52709;DHT22;38606;52.986;6.980;2023-07-16T02:16:39;17.10;99.90
52709;DHT22;38606;52.986;6.980;2023-07-16T02:19:05;17.30;99.90
52709;DHT22;38606;52.986;6.980;2023-07-16T02:21:31;17.10;99.90
52709;DHT22;38606;52.986;6.980;2023-07-16T02:23:56;17.40;99.90
52709;DHT22;38606;52.986;6.980;2023-07-16T02:26:22;17.20;99.90
52709;DHT22;38606;52.986;6.980;2023-07-16T02:28:48;17.10;99.90
52709;DHT22;38606;52.986;6.980;2023-07-16T02:31:14;17.00;99.90
52709;DHT22;38606;52.986;6.980;2023-07-16T02:33:39;17.30;99.90
52709;DHT22;38606;52.986;6.980;2023-07-16T02:36:05;17.20;99.90
52709;DHT22;38606;52.986;6.980;2023-07-16T02:38:32;17.20;99.90
52709;DHT22;38606;52.986;6.980;2023-07-16T02:40:57;17.20;99.90
52709;DHT22;38606;52.986;6.980;2023-07-16T02:43:23;17.00;99.90
52709;DHT22;38606;52.986;6.980;2023-07-16T02:45:49;17.30;99.90
52709;DHT22;38606;52.986;6.980;2023-07-16T02:48:15;17.40;99.90
52709;DHT22;38606;52.986;6.980;2023-07-16T02:50:40;17.20;99.90
52709;DHT22;38606;52.986;6.980;2023-07-16T02:53:07;17.00;99.90
52709;DHT22;38606;52.986;6.980;2023-07-16T02:55:34;17.00;99.90
52709;DHT22;38606;52.986;6.980;2023-07-16T02:58:00;17.20;99.90
52709;DHT22;38606;52.986;6.980;2023-07-16T03:00:33;17.00;99.90
52709;DHT22;38606;52.986;6.980;2023-07-16T03:03:00;16.90;99.90
52709;DHT22;38606;52.986;6.980;2023-07-16T03:05:27;17.00;99.90
52709;DHT22;38606;52.986;6.980;2023-07-16T03:07:53;16.80;99.90
52709;DHT22;38606;52.986;6.980;2023-07-16T03:10:19;16.90;99.90
52709;DHT22;38606;52.986;6.980;2023-07-16T03:12:45;17.00;99.90
52709;DHT22;38606;52.986;6.980;2023-07-16T03:15:11;16.90;99.90
52709;DHT22;38606;52.986;6.980;2023-07-16T03:17:36;17.00;99.90
52709;DHT22;38606;52.986;6.980;2023-07-16T03:20:02;16.50;99.90
52709;DHT22;38606;52.986;6.980;2023-07-16T03:22:31;16.90;99.90
52709;DHT22;38606;52.986;6.980;2023-07-16T03:24:56;17.00;99.90
52709;DHT22;38606;52.986;6.980;2023-07-16T03:27:22;17.00;99.90
52709;DHT22;38606;52.986;6.980;2023-07-16T03:29:48;17.00;99.90
52709;DHT22;38606;52.986;6.980;2023-07-16T03:32:14;16.80;99.90
52709;DHT22;38606;52.986;6.980;2023-07-16T03:34:40;16.80;99.90
52709;DHT22;38606;52.986;6.980;2023-07-16T03:37:05;16.60;99.90
52709;DHT22;38606;52.986;6.980;2023-07-16T03:39:31;17.00;99.90
52709;DHT22;38606;52.986;6.980;2023-07-16T03:41:57;16.70;99.90
52709;DHT22;38606;52.986;6.980;2023-07-16T03:44:23;16.70;99.90
52709;DHT22;38606;52.986;6.980;2023-07-16T03:46:48;17.00;99.90
52709;DHT22;38606;52.986;6.980;2023-07-16T03:49:14;16.80;99.90
52709;DHT22;38606;52.986;6.980;2023-07-16T03:51:40;17.10;99.90
52709;DHT22;38606;52.986;6.980;2023-07-16T03:54:05;16.80;99.90
52709;DHT22;38606;52.986;6.980;2023-07-16T03:56:31;16.70;99.90
52709;DHT22;38606;52.986;6.980;2023-07-16T03:58:56;17.00;99.90
52709;DHT22;38606;52.986;6.980;2023-07-16T04:01:22;16.70;99.90
52709;DHT22;38606;52.986;6.980;2023-07-16T04:03:48;16.70;99.90
52709;DHT22;38606;52.986;6.980;2023-07-16T04:06:13;16.80;99.90
52709;DHT22;38606;52.986;6.980;2023-07-16T04:08:39;16.70;99.90
52709;DHT22;38606;52.986;6.980;2023-07-16T04:11:05;16.70;99.90
52709;DHT22;38606;52.986;6.980;2023-07-16T04:13:32;16.90;99.90
52709;DHT22;38606;52.986;6.980;2023-07-16T04:15:58;16.90;99.90
52709;DHT22;38606;52.986;6.980;2023-07-16T04:18:27;16.90;99.90
52709;DHT22;38606;52.986;6.980;2023-07-16T04:20:52;17.00;99.90
52709;DHT22;38606;52.986;6.980;2023-07-16T04:23:20;17.00;99.90
52709;DHT22;38606;52.986;6.980;2023-07-16T04:25:45;17.10;99.90
52709;DHT22;38606;52.986;6.980;2023-07-16T04:28:12;17.00;99.90
52709;DHT22;38606;52.986;6.980;2023-07-16T04:30:37;17.00;99.90
52709;DHT22;38606;52.986;6.980;2023-07-16T04:33:04;17.00;99.90
52709;DHT22;38606;52.986;6.980;2023-07-16T04:35:30;16.90;99.90
52709;DHT22;38606;52.986;6.980;2023-07-16T04:37:56;17.30;99.90
52709;DHT22;38606;52.986;6.980;2023-07-16T04:40:21;17.10;99.90
52709;DHT22;38606;52.986;6.980;2023-07-16T04:42:47;16.90;99.90
52709;DHT22;38606;52.986;6.980;2023-07-16T04:45:13;17.10;99.90
52709;DHT22;38606;52.986;6.980;2023-07-16T04:47:41;17.20;99.90
52709;DHT22;38606;52.986;6.980;2023-07-16T04:50:07;17.20;99.90
52709;DHT22;38606;52.986;6.980;2023-07-16T04:52:32;17.30;99.90
52709;DHT22;38606;52.986;6.980;2023-07-16T04:54:58;17.30;99.90
52709;DHT22;38606;52.986;6.980;2023-07-16T04:57:24;17.30;99.90
52709;DHT22;38606;52.986;6.980;2023-07-16T04:59:49;17.30;99.90
52709;DHT22;38606;52.986;6.980;2023-07-16T05:02:15;17.50;99.90
52709;DHT22;38606;52.986;6.980;2023-07-16T05:04:43;17.70;99.90
52709;DHT22;38606;52.986;6.980;2023-07-16T05:07:09;17.80;99.90
52709;DHT22;38606;52.986;6.980;2023-07-16T05:09:35;17.70;99.90
52709;DHT22;38606;52.986;6.980;2023-07-16T05:12:01;18.10;99.90
52709;DHT22;38606;52.986;6.980;2023-07-16T05:14:28;17.80;99.90
52709;DHT22;38606;52.986;6.980;2023-07-16T05:16:54;17.80;99.90
52709;DHT22;38606;52.986;6.980;2023-07-16T05:19:20;17.80;99.90
52709;DHT22;38606;52.986;6.980;2023-07-16T05:21:46;18.00;99.90
52709;DHT22;38606;52.986;6.980;2023-07-16T05:24:11;18.20;99.90
52709;DHT22;38606;52.986;6.980;2023-07-16T05:26:38;18.20;99.90
52709;DHT22;38606;52.986;6.980;2023-07-16T05:29:03;18.30;99.90
52709;DHT22;38606;52.986;6.980;2023-07-16T05:31:29;18.50;99.90
52709;DHT22;38606;52.986;6.980;2023-07-16T05:33:55;18.30;99.90
52709;DHT22;38606;52.986;6.980;2023-07-16T05:36:21;18.70;99.90
52709;DHT22;38606;52.986;6.980;2023-07-16T05:38:46;18.70;99.90
52709;DHT22;38606;52.986;6.980;2023-07-16T05:41:12;18.50;99.90
52709;DHT22;38606;52.986;6.980;2023-07-16T05:43:38;18.70;99.90
52709;DHT22;38606;52.986;6.980;2023-07-16T05:46:03;18.70;99.90
52709;DHT22;38606;52.986;6.980;2023-07-16T05:48:31;19.10;99.90
52709;DHT22;38606;52.986;6.980;2023-07-16T05:50:56;18.80;99.90
52709;DHT22;38606;52.986;6.980;2023-07-16T05:53:22;18.90;99.90
52709;DHT22;38606;52.986;6.980;2023-07-16T05:55:48;18.70;99.90
52709;DHT22;38606;52.986;6.980;2023-07-16T05:58:15;18.70;99.90
52709;DHT22;38606;52.986;6.980;2023-07-16T06:00:41;19.10;99.90
52709;DHT22;38606;52.986;6.980;2023-07-16T06:03:07;19.20;99.90
52709;DHT22;38606;52.986;6.980;2023-07-16T06:05:33;19.00;99.90
52709;DHT22;38606;52.986;6.980;2023-07-16T06:08:00;19.10;99.90
52709;DHT22;38606;52.986;6.980;2023-07-16T06:10:27;19.40;99.90
52709;DHT22;38606;52.986;6.980;2023-07-16T06:12:52;19.20;99.90
52709;DHT22;38606;52.986;6.980;2023-07-16T06:15:18;19.50;99.90
52709;DHT22;38606;52.986;6.980;2023-07-16T06:17:44;19.40;99.90
52709;DHT22;38606;52.986;6.980;2023-07-16T06:20:09;19.40;99.90
52709;DHT22;38606;52.986;6.980;2023-07-16T06:22:36;19.60;99.90
52709;DHT22;38606;52.986;6.980;2023-07-16T06:25:02;19.40;99.90
52709;DHT22;38606;52.986;6.980;2023-07-16T06:27:28;19.50;99.90
52709;DHT22;38606;52.986;6.980;2023-07-16T06:29:53;19.60;99.90
52709;DHT22;38606;52.986;6.980;2023-07-16T06:32:19;19.80;99.90
52709;DHT22;38606;52.986;6.980;2023-07-16T06:34:45;19.80;99.90
52709;DHT22;38606;52.986;6.980;2023-07-16T06:37:11;19.80;99.90
52709;DHT22;38606;52.986;6.980;2023-07-16T06:39:37;20.10;99.90
52709;DHT22;38606;52.986;6.980;2023-07-16T06:42:03;20.00;99.90
52709;DHT22;38606;52.986;6.980;2023-07-16T06:44:28;20.10;99.90
52709;DHT22;38606;52.986;6.980;2023-07-16T06:46:54;20.20;99.90
52709;DHT22;38606;52.986;6.980;2023-07-16T06:49:21;20.20;99.90
52709;DHT22;38606;52.986;6.980;2023-07-16T06:51:47;19.90;99.90
52709;DHT22;38606;52.986;6.980;2023-07-16T06:54:12;19.90;99.90
52709;DHT22;38606;52.986;6.980;2023-07-16T06:56:38;20.30;99.90
52709;DHT22;38606;52.986;6.980;2023-07-16T06:59:04;20.60;99.90
52709;DHT22;38606;52.986;6.980;2023-07-16T07:01:29;20.40;99.90
52709;DHT22;38606;52.986;6.980;2023-07-16T07:03:55;20.80;99.90
52709;DHT22;38606;52.986;6.980;2023-07-16T07:06:21;21.10;99.90
52709;DHT22;38606;52.986;6.980;2023-07-16T07:08:47;21.00;99.90
52709;DHT22;38606;52.986;6.980;2023-07-16T07:11:13;21.30;99.90
52709;DHT22;38606;52.986;6.980;2023-07-16T07:13:39;21.20;99.90
52709;DHT22;38606;52.986;6.980;2023-07-16T07:16:04;21.30;99.90
52709;DHT22;38606;52.986;6.980;2023-07-16T07:18:30;21.00;99.90
52709;DHT22;38606;52.986;6.980;2023-07-16T07:20:56;21.20;99.90
52709;DHT22;38606;52.986;6.980;2023-07-16T07:23:22;21.00;99.90
52709;DHT22;38606;52.986;6.980;2023-07-16T07:25:51;21.30;99.90
52709;DHT22;38606;52.986;6.980;2023-07-16T07:28:18;21.40;99.90
52709;DHT22;38606;52.986;6.980;2023-07-16T07:30:45;21.50;99.90
52709;DHT22;38606;52.986;6.980;2023-07-16T07:33:11;21.50;99.90
52709;DHT22;38606;52.986;6.980;2023-07-16T07:35:37;21.50;99.90
52709;DHT22;38606;52.986;6.980;2023-07-16T07:38:02;21.60;99.90
52709;DHT22;38606;52.986;6.980;2023-07-16T07:40:28;21.60;99.90
52709;DHT22;38606;52.986;6.980;2023-07-16T07:42:54;21.50;99.90
52709;DHT22;38606;52.986;6.980;2023-07-16T07:45:20;21.50;99.90
52709;DHT22;38606;52.986;6.980;2023-07-16T07:47:45;23.10;99.90
52709;DHT22;38606;52.986;6.980;2023-07-16T07:50:11;21.80;99.90
52709;DHT22;38606;52.986;6.980;2023-07-16T07:52:37;21.70;99.90
52709;DHT22;38606;52.986;6.980;2023-07-16T07:55:03;22.00;99.90
52709;DHT22;38606;52.986;6.980;2023-07-16T07:57:29;22.00;99.90
52709;DHT22;38606;52.986;6.980;2023-07-16T07:59:55;22.30;99.90
52709;DHT22;38606;52.986;6.980;2023-07-16T08:02:26;21.80;99.90
52709;DHT22;38606;52.986;6.980;2023-07-16T08:04:53;22.10;99.90
52709;DHT22;38606;52.986;6.980;2023-07-16T08:07:19;22.10;99.90
52709;DHT22;38606;52.986;6.980;2023-07-16T08:09:45;22.20;99.90
52709;DHT22;38606;52.986;6.980;2023-07-16T08:12:11;22.10;99.90
52709;DHT22;38606;52.986;6.980;2023-07-16T08:14:37;22.10;99.90
52709;DHT22;38606;52.986;6.980;2023-07-16T08:17:02;22.00;99.90
52709;DHT22;38606;52.986;6.980;2023-07-16T08:19:28;22.40;99.90
52709;DHT22;38606;52.986;6.980;2023-07-16T08:21:54;22.10;99.90
52709;DHT22;38606;52.986;6.980;2023-07-16T08:24:20;22.50;99.90
52709;DHT22;38606;52.986;6.980;2023-07-16T08:26:45;22.30;99.90
52709;DHT22;38606;52.986;6.980;2023-07-16T08:29:11;22.60;99.90
52709;DHT22;38606;52.986;6.980;2023-07-16T08:31:37;22.60;99.90
52709;DHT22;38606;52.986;6.980;2023-07-16T08:34:02;22.70;99.90
52709;DHT22;38606;52.986;6.980;2023-07-16T08:36:28;22.80;99.90
52709;DHT22;38606;52.986;6.980;2023-07-16T08:38:54;22.60;99.90
52709;DHT22;38606;52.986;6.980;2023-07-16T08:41:20;22.50;99.90
52709;DHT22;38606;52.986;6.980;2023-07-16T08:43:46;22.80;99.90
52709;DHT22;38606;52.986;6.980;2023-07-16T08:46:18;22.50;99.90
52709;DHT22;38606;52.986;6.980;2023-07-16T08:48:45;22.90;99.90
52709;DHT22;38606;52.986;6.980;2023-07-16T08:51:14;22.40;99.90
52709;DHT22;38606;52.986;6.980;2023-07-16T08:53:40;22.50;99.90
52709;DHT22;38606;52.986;6.980;2023-07-16T08:56:06;22.50;99.90
52709;DHT22;38606;52.986;6.980;2023-07-16T08:58:32;22.60;99.90
52709;DHT22;38606;52.986;6.980;2023-07-16T09:00:59;22.30;99.90
52709;DHT22;38606;52.986;6.980;2023-07-16T09:03:26;22.20;99.90
52709;DHT22;38606;52.986;6.980;2023-07-16T09:05:54;22.40;99.90
52709;DHT22;38606;52.986;6.980;2023-07-16T09:08:20;22.60;99.90
52709;DHT22;38606;52.986;6.980;2023-07-16T09:10:56;22.50;99.90
52709;DHT22;38606;52.986;6.980;2023-07-16T09:13:23;22.30;99.90
52709;DHT22;38606;52.986;6.980;2023-07-16T09:15:56;22.70;99.90
52709;DHT22;38606;52.986;6.980;2023-07-16T09:18:23;22.30;99.90
52709;DHT22;38606;52.986;6.980;2023-07-16T09:20:56;21.90;99.90
52709;DHT22;38606;52.986;6.980;2023-07-16T09:23:25;22.10;99.90
52709;DHT22;38606;52.986;6.980;2023-07-16T09:25:53;21.80;99.90
52709;DHT22;38606;52.986;6.980;2023-07-16T09:28:19;22.00;99.90
52709;DHT22;38606;52.986;6.980;2023-07-16T09:30:46;24.10;99.90
52709;DHT22;38606;52.986;6.980;2023-07-16T09:33:15;22.30;99.90
52709;DHT22;38606;52.986;6.980;2023-07-16T09:35:41;22.40;99.90
52709;DHT22;38606;52.986;6.980;2023-07-16T09:38:10;22.50;99.90
52709;DHT22;38606;52.986;6.980;2023-07-16T09:40:37;22.70;99.90
52709;DHT22;38606;52.986;6.980;2023-07-16T09:43:03;22.60;99.90
52709;DHT22;38606;52.986;6.980;2023-07-16T09:45:30;22.60;99.90
52709;DHT22;38606;52.986;6.980;2023-07-16T09:47:56;22.80;99.90
52709;DHT22;38606;52.986;6.980;2023-07-16T09:50:28;22.50;99.90
52709;DHT22;38606;52.986;6.980;2023-07-16T09:52:54;22.40;99.90
52709;DHT22;38606;52.986;6.980;2023-07-16T09:55:22;22.50;99.90
52709;DHT22;38606;52.986;6.980;2023-07-16T09:57:50;22.50;99.90
52709;DHT22;38606;52.986;6.980;2023-07-16T10:00:17;22.40;99.90
52709;DHT22;38606;52.986;6.980;2023-07-16T10:02:44;22.60;99.90
52709;DHT22;38606;52.986;6.980;2023-07-16T10:05:27;20.50;99.90
52709;DHT22;38606;52.986;6.980;2023-07-16T10:07:59;22.40;99.90
52709;DHT22;38606;52.986;6.980;2023-07-16T10:10:37;22.40;99.90
52709;DHT22;38606;52.986;6.980;2023-07-16T10:13:03;22.70;99.90
52709;DHT22;38606;52.986;6.980;2023-07-16T10:15:29;22.20;99.90
52709;DHT22;38606;52.986;6.980;2023-07-16T10:17:55;22.40;99.90
52709;DHT22;38606;52.986;6.980;2023-07-16T10:20:35;22.20;99.90
52709;DHT22;38606;52.986;6.980;2023-07-16T10:23:12;22.10;99.90
52709;DHT22;38606;52.986;6.980;2023-07-16T10:25:39;22.20;99.90
52709;DHT22;38606;52.986;6.980;2023-07-16T10:28:05;22.10;99.90
52709;DHT22;38606;52.986;6.980;2023-07-16T10:30:32;22.40;99.90
52709;DHT22;38606;52.986;6.980;2023-07-16T10:32:57;22.40;99.90
52709;DHT22;38606;52.986;6.980;2023-07-16T10:35:25;22.30;99.90
52709;DHT22;38606;52.986;6.980;2023-07-16T10:37:51;22.80;99.90
52709;DHT22;38606;52.986;6.980;2023-07-16T10:40:19;22.80;99.90
52709;DHT22;38606;52.986;6.980;2023-07-16T10:42:45;22.90;99.90
52709;DHT22;38606;52.986;6.980;2023-07-16T10:45:13;23.10;99.90
52709;DHT22;38606;52.986;6.980;2023-07-16T10:47:53;22.90;99.90
52709;DHT22;38606;52.986;6.980;2023-07-16T10:50:19;23.20;99.90
52709;DHT22;38606;52.986;6.980;2023-07-16T10:52:53;23.40;99.90
52709;DHT22;38606;52.986;6.980;2023-07-16T10:55:19;23.50;99.90
52709;DHT22;38606;52.986;6.980;2023-07-16T10:57:47;23.10;99.90
52709;DHT22;38606;52.986;6.980;2023-07-16T11:00:15;23.10;99.90
52709;DHT22;38606;52.986;6.980;2023-07-16T11:02:41;23.10;99.90
52709;DHT22;38606;52.986;6.980;2023-07-16T11:05:15;22.50;99.90
52709;DHT22;38606;52.986;6.980;2023-07-16T11:07:45;22.70;99.90
52709;DHT22;38606;52.986;6.980;2023-07-16T11:10:11;22.50;99.90
52709;DHT22;38606;52.986;6.980;2023-07-16T11:12:37;22.20;99.90
52709;DHT22;38606;52.986;6.980;2023-07-16T11:15:03;22.20;99.90
52709;DHT22;38606;52.986;6.980;2023-07-16T11:17:29;22.30;99.90
52709;DHT22;38606;52.986;6.980;2023-07-16T11:19:56;22.40;99.90
52709;DHT22;38606;52.986;6.980;2023-07-16T11:22:26;22.70;99.90
52709;DHT22;38606;52.986;6.980;2023-07-16T11:24:53;22.70;99.90
52709;DHT22;38606;52.986;6.980;2023-07-16T11:27:21;22.90;99.90
52709;DHT22;38606;52.986;6.980;2023-07-16T11:29:51;23.50;99.90
52709;DHT22;38606;52.986;6.980;2023-07-16T11:35:04;23.60;99.90
52709;DHT22;38606;52.986;6.980;2023-07-16T11:37:34;23.40;99.90
52709;DHT22;38606;52.986;6.980;2023-07-16T11:42:31;23.80;99.90
52709;DHT22;38606;52.986;6.980;2023-07-16T11:44:57;23.50;99.90
52709;DHT22;38606;52.986;6.980;2023-07-16T11:47:24;23.40;99.90
52709;DHT22;38606;52.986;6.980;2023-07-16T11:49:50;23.30;99.90
52709;DHT22;38606;52.986;6.980;2023-07-16T11:52:34;23.40;99.90
52709;DHT22;38606;52.986;6.980;2023-07-16T11:55:00;23.20;99.90
52709;DHT22;38606;52.986;6.980;2023-07-16T11:57:26;23.30;99.90
52709;DHT22;38606;52.986;6.980;2023-07-16T11:59:52;23.40;99.90
52709;DHT22;38606;52.986;6.980;2023-07-16T12:02:19;23.30;99.90
52709;DHT22;38606;52.986;6.980;2023-07-16T12:04:45;23.40;99.90
52709;DHT22;38606;52.986;6.980;2023-07-16T12:07:10;23.30;99.90
52709;DHT22;38606;52.986;6.980;2023-07-16T12:09:36;23.10;99.90
52709;DHT22;38606;52.986;6.980;2023-07-16T12:12:02;23.00;99.90
52709;DHT22;38606;52.986;6.980;2023-07-16T12:14:28;23.00;99.90
52709;DHT22;38606;52.986;6.980;2023-07-16T12:16:54;22.80;99.90
52709;DHT22;38606;52.986;6.980;2023-07-16T12:19:20;22.70;99.90
52709;DHT22;38606;52.986;6.980;2023-07-16T12:21:46;22.70;99.90
52709;DHT22;38606;52.986;6.980;2023-07-16T12:24:12;22.70;99.90
52709;DHT22;38606;52.986;6.980;2023-07-16T12:26:37;22.80;99.90
52709;DHT22;38606;52.986;6.980;2023-07-16T12:29:04;22.50;99.90
52709;DHT22;38606;52.986;6.980;2023-07-16T12:31:30;22.90;99.90
52709;DHT22;38606;52.986;6.980;2023-07-16T12:33:57;23.00;99.90
52709;DHT22;38606;52.986;6.980;2023-07-16T12:36:23;23.20;99.90
52709;DHT22;38606;52.986;6.980;2023-07-16T12:38:49;23.00;99.90
52709;DHT22;38606;52.986;6.980;2023-07-16T12:41:15;23.00;99.90
52709;DHT22;38606;52.986;6.980;2023-07-16T12:43:41;23.20;99.90
52709;DHT22;38606;52.986;6.980;2023-07-16T12:46:07;23.10;99.90
52709;DHT22;38606;52.986;6.980;2023-07-16T12:48:33;22.90;99.90
52709;DHT22;38606;52.986;6.980;2023-07-16T12:50:59;22.80;99.90
52709;DHT22;38606;52.986;6.980;2023-07-16T12:53:25;23.00;99.90
52709;DHT22;38606;52.986;6.980;2023-07-16T12:55:52;23.10;99.90
52709;DHT22;38606;52.986;6.980;2023-07-16T12:58:18;22.80;99.90
52709;DHT22;38606;52.986;6.980;2023-07-16T13:00:44;22.60;99.90
52709;DHT22;38606;52.986;6.980;2023-07-16T13:03:10;22.30;99.90
52709;DHT22;38606;52.986;6.980;2023-07-16T13:05:38;22.40;99.90
52709;DHT22;38606;52.986;6.980;2023-07-16T13:08:04;22.70;99.90
52709;DHT22;38606;52.986;6.980;2023-07-16T13:10:30;22.30;99.90
52709;DHT22;38606;52.986;6.980;2023-07-16T13:12:55;22.50;99.90
52709;DHT22;38606;52.986;6.980;2023-07-16T13:15:21;22.60;99.90
52709;DHT22;38606;52.986;6.980;2023-07-16T13:17:47;22.80;99.90
52709;DHT22;38606;52.986;6.980;2023-07-16T13:20:13;22.80;99.90
52709;DHT22;38606;52.986;6.980;2023-07-16T13:22:39;23.60;99.90
52709;DHT22;38606;52.986;6.980;2023-07-16T13:25:05;22.90;99.90
52709;DHT22;38606;52.986;6.980;2023-07-16T13:27:31;23.00;99.90
52709;DHT22;38606;52.986;6.980;2023-07-16T13:29:57;21.90;99.90
52709;DHT22;38606;52.986;6.980;2023-07-16T13:32:22;22.80;99.90
52709;DHT22;38606;52.986;6.980;2023-07-16T13:34:48;22.90;99.90
52709;DHT22;38606;52.986;6.980;2023-07-16T13:37:14;23.00;99.90
52709;DHT22;38606;52.986;6.980;2023-07-16T13:39:40;22.80;99.90
52709;DHT22;38606;52.986;6.980;2023-07-16T13:42:06;23.00;99.90
52709;DHT22;38606;52.986;6.980;2023-07-16T13:44:35;22.90;99.90
52709;DHT22;38606;52.986;6.980;2023-07-16T13:47:00;22.90;99.90
52709;DHT22;38606;52.986;6.980;2023-07-16T13:49:26;22.90;99.90
52709;DHT22;38606;52.986;6.980;2023-07-16T13:51:52;22.70;99.90
52709;DHT22;38606;52.986;6.980;2023-07-16T13:54:18;22.70;99.90
52709;DHT22;38606;52.986;6.980;2023-07-16T13:56:44;22.80;99.90
52709;DHT22;38606;52.986;6.980;2023-07-16T13:59:09;22.90;99.90
52709;DHT22;38606;52.986;6.980;2023-07-16T14:01:39;22.70;99.90
52709;DHT22;38606;52.986;6.980;2023-07-16T14:04:05;22.90;99.90
52709;DHT22;38606;52.986;6.980;2023-07-16T14:06:31;23.00;99.90
52709;DHT22;38606;52.986;6.980;2023-07-16T14:08:58;23.10;99.90
52709;DHT22;38606;52.986;6.980;2023-07-16T14:11:24;23.10;99.90
52709;DHT22;38606;52.986;6.980;2023-07-16T14:13:50;23.30;99.90
52709;DHT22;38606;52.986;6.980;2023-07-16T14:16:20;23.30;99.90
52709;DHT22;38606;52.986;6.980;2023-07-16T14:18:51;23.10;99.90
52709;DHT22;38606;52.986;6.980;2023-07-16T14:21:18;23.30;99.90
52709;DHT22;38606;52.986;6.980;2023-07-16T14:23:44;23.00;99.90
52709;DHT22;38606;52.986;6.980;2023-07-16T14:26:10;23.10;99.90
52709;DHT22;38606;52.986;6.980;2023-07-16T14:28:35;23.10;99.90
52709;DHT22;38606;52.986;6.980;2023-07-16T14:31:01;23.10;99.90
52709;DHT22;38606;52.986;6.980;2023-07-16T14:33:27;23.00;99.90
52709;DHT22;38606;52.986;6.980;2023-07-16T14:35:53;23.00;99.90
52709;DHT22;38606;52.986;6.980;2023-07-16T14:38:19;22.70;99.90
52709;DHT22;38606;52.986;6.980;2023-07-16T14:40:45;22.70;99.90
52709;DHT22;38606;52.986;6.980;2023-07-16T14:43:12;22.70;99.90
52709;DHT22;38606;52.986;6.980;2023-07-16T14:45:37;22.60;99.90
52709;DHT22;38606;52.986;6.980;2023-07-16T14:48:04;22.70;99.90
52709;DHT22;38606;52.986;6.980;2023-07-16T14:50:30;22.50;99.90
52709;DHT22;38606;52.986;6.980;2023-07-16T14:52:56;22.60;99.90
52709;DHT22;38606;52.986;6.980;2023-07-16T14:55:22;22.60;99.90
52709;DHT22;38606;52.986;6.980;2023-07-16T14:57:48;22.70;99.90
52709;DHT22;38606;52.986;6.980;2023-07-16T15:00:14;22.50;99.90
52709;DHT22;38606;52.986;6.980;2023-07-16T15:02:40;22.70;99.90
52709;DHT22;38606;52.986;6.980;2023-07-16T15:05:08;22.90;99.90
52709;DHT22;38606;52.986;6.980;2023-07-16T15:07:35;23.10;99.90
52709;DHT22;38606;52.986;6.980;2023-07-16T15:10:02;22.90;99.90
52709;DHT22;38606;52.986;6.980;2023-07-16T15:12:28;22.90;99.90
52709;DHT22;38606;52.986;6.980;2023-07-16T15:14:54;22.90;99.90
52709;DHT22;38606;52.986;6.980;2023-07-16T15:17:19;22.90;99.90
52709;DHT22;38606;52.986;6.980;2023-07-16T15:19:47;23.00;99.90
52709;DHT22;38606;52.986;6.980;2023-07-16T15:22:12;22.90;99.90
52709;DHT22;38606;52.986;6.980;2023-07-16T15:24:41;22.90;99.90
52709;DHT22;38606;52.986;6.980;2023-07-16T15:27:07;22.70;99.90
52709;DHT22;38606;52.986;6.980;2023-07-16T15:29:33;22.80;99.90
52709;DHT22;38606;52.986;6.980;2023-07-16T15:31:58;22.80;99.90
52709;DHT22;38606;52.986;6.980;2023-07-16T15:34:24;22.80;99.90
52709;DHT22;38606;52.986;6.980;2023-07-16T15:36:50;22.70;99.90
52709;DHT22;38606;52.986;6.980;2023-07-16T15:39:15;22.70;99.90